Time;durP1;ratioP1;P1;durP2;ratioP2;P2;SDS_P1;SDS_P2;PMS_P1;PMS_P2;Temp;Humidity;BMP_temperature;BMP_pressure;BME280_temperature;BME280_humidity;BME280_pressure;Samples;Min_cycle;Max_cycle;Signal;HPM_P1;HPM_P2
2021/01/13 06:37:36;;;;;;;28.38;18.55;;;;;;;-1.39;68.52;98455.91;1768298;76;61829;-39
2021/01/13 06:40:12;;;;;;;28.40;18.05;;;;;;;-1.36;68.32;98443.36;1795467;77;21166;-42
2021/01/13 06:42:40;;;;;;;26.93;18.12;;;;;;;-1.30;68.50;98441.33;1834110;77;21184;-42
2021/01/13 06:45:10;;;;;;;26.77;18.27;;;;;;;-1.28;68.49;98445.03;1842044;77;21123;-42
2021/01/13 06:47:56;;;;;;;27.17;18.70;;;;;;;-1.23;67.85;98436.38;1829338;77;22253;-42
2021/01/13 06:50:37;;;;;;;25.10;17.55;;;;;;;-1.23;67.85;98436.38;1826270;77;21611;-42
2021/01/13 06:53:11;;;;;;;27.37;17.12;;;;;;;-1.18;68.05;98442.91;1812082;77;21588;-42
2021/01/13 06:55:41;;;;;;;24.12;16.25;;;;;;;-1.12;68.12;98442.23;1831580;77;21161;-43
2021/01/13 06:58:17;;;;;;;25.93;16.70;;;;;;;-1.11;68.12;98447.77;1809790;77;21616;-43
2021/01/13 07:00:46;;;;;;;26.87;17.75;;;;;;;-1.06;67.44;98444.98;1833169;77;21361;-42
2021/01/13 07:03:27;;;;;;;16.80;12.15;;;;;;;-1.10;67.48;98441.37;1770987;79;20996;-43
2021/01/13 07:06:06;;;;;;;25.17;16.05;;;;;;;-1.05;67.21;98438.58;1829341;77;21563;-42
2021/01/13 07:08:34;;;;;;;27.13;17.77;;;;;;;-1.04;67.05;98433.50;1826187;77;21095;-42
2021/01/13 07:11:10;;;;;;;27.35;16.42;;;;;;;-1.12;67.17;98431.05;1811874;77;21571;-42
2021/01/13 07:13:40;;;;;;;25.23;17.85;;;;;;;-1.10;67.52;98433.39;1837693;77;21576;-42
2021/01/13 07:16:08;;;;;;;;;;;;;;;-1.08;67.57;98436.55;1798437;77;21152;-42
2021/01/13 07:18:36;;;;;;;25.00;17.15;;;;;;;-1.06;67.46;98429.02;1819889;77;20506;-42
2021/01/13 07:21:09;;;;;;;27.87;16.95;;;;;;;-1.13;67.79;98431.34;1780358;79;21680;-42
2021/01/13 07:23:47;;;;;;;27.37;17.42;;;;;;;-1.10;68.06;98434.72;1755480;80;21157;-42
2021/01/13 07:26:15;;;;;;;24.43;16.32;;;;;;;-1.00;67.89;98438.45;1837626;77;21246;-42
2021/01/13 07:28:43;;;;;;;25.50;16.77;;;;;;;-0.96;67.87;98427.43;1821974;77;21608;-42
2021/01/13 07:31:12;;;;;;;26.73;16.37;;;;;;;-0.92;67.42;98425.75;1832135;77;20987;-42
2021/01/13 07:33:44;;;;;;;26.82;17.27;;;;;;;-0.94;67.26;98430.58;1805484;77;21448;-42
2021/01/13 07:36:18;;;;;;;25.05;17.27;;;;;;;-0.91;66.96;98427.30;1819816;77;20987;-43
2021/01/13 07:38:49;;;;;;;23.40;16.80;;;;;;;-0.89;66.88;98433.11;1831176;77;21572;-42
2021/01/13 07:41:34;;;;;;;28.62;17.50;;;;;;;-0.85;66.82;98430.61;1846633;77;21134;-42
2021/01/13 07:44:21;;;;;;;27.85;17.70;;;;;;;-0.79;66.75;98429.39;1838026;78;22653;-42
2021/01/13 07:47:01;;;;;;;25.43;16.93;;;;;;;-0.81;66.67;98429.69;1824896;77;20940;-42
2021/01/13 07:49:47;;;;;;;;;;;;;;;-0.76;66.35;98416.79;1818091;79;21364;-42
2021/01/13 07:52:18;;;;;;;25.72;17.00;;;;;;;-0.70;66.31;98413.69;1821138;77;20302;-41
2021/01/13 07:54:49;;;;;;;26.80;15.95;;;;;;;-0.75;66.37;98410.38;1786124;77;21011;-41
2021/01/13 07:57:23;;;;;;;26.93;17.90;;;;;;;-0.72;66.19;98411.09;1807030;77;21054;-42
2021/01/13 08:00:07;;;;;;;26.85;16.75;;;;;;;-0.69;65.85;98411.27;1784033;79;21134;-41
2021/01/13 08:03:05;;;;;;;21.23;13.25;;;;;;;-0.67;65.79;98411.73;1773481;79;21190;-42
2021/01/13 08:06:20;;;;;;;27.05;17.62;;;;;;;-0.63;65.80;98399.38;1761548;80;21050;-41
2021/01/13 08:09:13;;;;;;;25.15;16.55;;;;;;;-0.59;65.53;98395.56;1772335;80;21012;-41
2021/01/13 08:12:24;;;;;;;24.52;17.90;;;;;;;-0.65;65.25;98378.95;1784037;80;21151;-42
2021/01/13 08:15:47;;;;;;;25.35;18.42;;;;;;;-0.55;65.23;98393.30;1802905;79;21150;-42
2021/01/13 08:18:55;;;;;;;29.63;18.20;;;;;;;-0.53;64.88;98393.77;1791993;79;21390;-43
2021/01/13 08:21:40;;;;;;;26.40;17.87;;;;;;;-0.60;64.39;98383.34;1835480;77;21565;-43
2021/01/13 08:27:01;;;;;;;27.02;18.57;;;;;;;-0.56;64.51;98382.41;1875922;76;22527;-42
2021/01/13 08:29:36;;;;;;;30.27;18.77;;;;;;;-0.52;64.46;98379.36;1851399;77;20959;-42
2021/01/13 08:32:07;;;;;;;30.90;20.02;;;;;;;-0.38;64.29;98372.56;1822196;77;21345;-41
2021/01/13 08:34:42;;;;;;;30.12;20.02;;;;;;;-0.32;63.98;98375.33;1849218;77;20992;-42
2021/01/13 08:37:11;;;;;;;29.35;20.70;;;;;;;-0.29;63.84;98373.36;1821983;77;21615;-42
2021/01/13 08:39:45;;;;;;;30.00;18.98;;;;;;;-0.28;63.65;98368.81;1825867;77;20979;-42
2021/01/13 08:42:33;;;;;;;32.35;21.02;;;;;;;-0.23;63.52;98374.78;1840792;77;21018;-42
2021/01/13 08:45:05;;;;;;;32.48;20.50;;;;;;;-0.18;63.34;98364.52;1824903;77;22279;-42
2021/01/13 08:47:33;;;;;;;34.13;21.85;;;;;;;-0.19;63.25;98358.41;1818846;77;21023;-42
2021/01/13 08:50:13;;;;;;;29.95;20.72;;;;;;;-0.14;63.27;98351.59;1820174;77;21596;-42
2021/01/13 08:52:49;;;;;;;33.23;21.20;;;;;;;-0.15;63.30;98357.25;1818346;78;21031;-42
2021/01/13 08:55:22;;;;;;;31.62;21.12;;;;;;;-0.13;63.34;98348.38;1818237;78;21181;-42
2021/01/13 08:57:54;;;;;;;30.82;20.08;;;;;;;-0.08;63.13;98337.02;1831479;77;21189;-42
2021/01/13 09:00:25;;;;;;;31.52;21.17;;;;;;;-0.07;62.79;98339.14;1828035;77;21015;-42
2021/01/13 09:03:26;;;;;;;33.38;22.60;;;;;;;-0.05;63.12;98330.30;1786569;77;21559;-42
2021/01/13 09:06:24;;;;;;;31.07;20.95;;;;;;;0.12;63.35;98327.60;1812783;78;22728;-43
2021/01/13 09:08:54;;;;;;;34.10;22.22;;;;;;;0.18;62.99;98322.35;1776870;79;21000;-43
2021/01/13 09:11:34;;;;;;;30.75;21.10;;;;;;;0.22;62.63;98310.50;1775750;79;22255;-44
2021/01/13 09:14:22;;;;;;;33.00;21.40;;;;;;;0.30;62.73;98312.36;1778318;79;20933;-44
2021/01/13 09:16:57;;;;;;;29.35;20.95;;;;;;;0.38;62.61;98304.36;1797122;79;21577;-44
2021/01/13 09:19:39;;;;;;;35.10;21.65;;;;;;;0.40;62.69;98296.02;1791364;79;20996;-44
2021/01/13 09:22:10;;;;;;;33.78;22.77;;;;;;;0.41;62.37;98289.05;1790823;79;21353;-44
2021/01/13 09:24:43;;;;;;;32.75;22.15;;;;;;;0.40;62.19;98289.36;1796115;79;22124;-43
2021/01/13 09:27:14;;;;;;;35.35;22.93;;;;;;;0.38;62.50;98286.24;1806326;79;21031;-43
2021/01/13 09:29:52;;;;;;;32.80;21.60;;;;;;;0.48;62.42;98281.91;1732286;82;21019;-44
2021/01/13 09:32:22;;;;;;;32.83;21.80;;;;;;;0.62;62.49;98277.69;1729413;82;21175;-43
2021/01/13 09:34:52;;;;;;;34.45;21.37;;;;;;;0.75;62.01;98282.80;1739308;82;21186;-44
2021/01/13 09:37:24;;;;;;;30.20;21.12;;;;;;;0.81;61.86;98276.73;1726704;82;22277;-44
2021/01/13 09:40:01;;;;;;;31.12;21.00;;;;;;;0.85;61.69;98274.44;1695806;83;21177;-44
2021/01/13 09:42:42;;;;;;;32.78;22.40;;;;;;;0.88;61.51;98271.11;1764827;81;21107;-44
2021/01/13 09:45:12;;;;;;;30.43;20.40;;;;;;;0.97;61.48;98272.97;1736804;80;21183;-44
2021/01/13 09:47:41;;;;;;;29.12;21.60;;;;;;;1.00;61.56;98268.31;1720546;82;21540;-44
2021/01/13 09:50:13;;;;;;;33.95;21.75;;;;;;;1.03;61.35;98268.44;1729076;82;22639;-44
2021/01/13 09:52:43;;;;;;;32.88;21.55;;;;;;;0.93;61.00;98274.15;1759052;81;21199;-43
2021/01/13 09:55:13;;;;;;;33.70;22.20;;;;;;;0.89;60.97;98271.90;1750843;81;21149;-43
2021/01/13 09:57:42;;;;;;;32.53;21.90;;;;;;;0.83;61.59;98273.17;1752849;81;21126;-44
2021/01/13 10:00:15;;;;;;;35.60;23.18;;;;;;;0.79;62.05;98269.05;1765330;81;21202;-44
2021/01/13 10:02:48;;;;;;;38.70;22.30;;;;;;;0.79;62.33;98266.38;1736028;82;21196;-44
2021/01/13 10:05:20;;;;;;;35.38;21.87;;;;;;;0.80;62.45;98264.49;1734674;82;21159;-44
2021/01/13 10:07:53;;;;;;;30.90;20.57;;;;;;;0.73;62.94;98260.20;1783843;79;21167;-43
2021/01/13 10:10:25;;;;;;;34.63;21.55;;;;;;;0.75;63.11;98250.00;1777118;79;21005;-44
2021/01/13 10:12:54;;;;;;;41.20;22.60;;;;;;;0.71;63.35;98250.42;1795272;79;21144;-44
2021/01/13 10:15:22;;;;;;;40.88;21.87;;;;;;;0.69;63.83;98244.61;1727565;83;21427;-44
2021/01/13 10:17:51;;;;;;;36.25;24.25;;;;;;;0.69;64.11;98247.28;1717455;82;21161;-43
2021/01/13 10:20:24;;;;;;;34.80;22.73;;;;;;;0.70;63.91;98248.85;1711279;82;21004;-44
2021/01/13 10:22:55;;;;;;;31.20;21.42;;;;;;;0.72;63.79;98241.32;1709353;82;21105;-44
2021/01/13 10:25:27;;;;;;;34.35;23.10;;;;;;;0.69;64.08;98241.95;1715932;82;21179;-44
2021/01/13 10:27:56;;;;;;;32.88;21.68;;;;;;;0.66;64.31;98234.05;1714738;82;21367;-44
2021/01/13 10:30:28;;;;;;;39.38;23.22;;;;;;;0.65;64.47;98227.69;1776005;79;21179;-43
2021/01/13 10:33:00;;;;;;;32.33;21.20;;;;;;;0.64;64.68;98228.79;1778784;79;21557;-44
2021/01/13 10:35:39;;;;;;;23.57;16.62;;;;;;;0.66;64.61;98228.72;1780979;79;21104;-44
2021/01/13 10:38:08;;;;;;;26.07;17.77;;;;;;;0.66;64.76;98230.59;1778737;79;21159;-44
2021/01/13 10:40:39;;;;;;;35.15;23.32;;;;;;;0.62;64.93;98231.02;1768500;79;21510;-44
2021/01/13 10:43:10;;;;;;;36.77;23.12;;;;;;;0.68;65.21;98232.37;1765890;79;21036;-44
2021/01/13 10:45:38;;;;;;;35.25;22.70;;;;;;;0.74;65.00;98222.55;1749498;79;21154;-44
2021/01/13 10:48:08;;;;;;;36.63;23.92;;;;;;;0.78;64.78;98211.45;1760454;80;21147;-44
2021/01/13 10:50:39;;;;;;;37.10;23.52;;;;;;;0.80;64.74;98208.47;1720919;83;21182;-44
2021/01/13 10:53:08;;;;;;;33.30;21.90;;;;;;;0.86;64.85;98208.52;1723890;82;21337;-44
2021/01/13 10:55:36;;;;;;;34.83;22.82;;;;;;;0.92;64.72;98201.11;1775556;79;21175;-44
2021/01/13 10:58:04;;;;;;;38.08;24.02;;;;;;;0.99;64.58;98198.14;1782023;79;21087;-44
2021/01/13 11:00:35;;;;;;;39.03;22.40;;;;;;;1.06;64.63;98197.64;1761342;79;21102;-44
2021/01/13 11:03:05;;;;;;;36.90;23.40;;;;;;;1.12;64.40;98193.09;1781599;79;21159;-44
2021/01/13 11:05:36;;;;;;;36.98;23.52;;;;;;;1.17;64.01;98183.56;1786059;78;25062;-44
2021/01/13 11:08:05;;;;;;;37.95;23.83;;;;;;;1.12;63.89;98175.75;1798706;79;21021;-44
2021/01/13 11:10:36;;;;;;;30.90;21.35;;;;;;;0.98;63.87;98175.23;1798488;79;21010;-44
2021/01/13 11:13:06;;;;;;;35.90;23.27;;;;;;;0.93;64.24;98166.63;1783283;79;21550;-44
2021/01/13 11:15:38;;;;;;;34.18;22.35;;;;;;;0.85;64.10;98166.38;1789655;79;21035;-44
2021/01/13 11:18:09;;;;;;;29.12;18.73;;;;;;;0.86;63.65;98163.95;1794268;79;21367;-43
2021/01/13 11:20:37;;;;;;;36.83;23.83;;;;;;;0.82;63.80;98159.01;1770491;79;21292;-43
2021/01/13 11:23:07;;;;;;;31.42;21.70;;;;;;;0.89;63.64;98154.50;1762874;80;21180;-44
2021/01/13 11:25:39;;;;;;;35.45;23.85;;;;;;;0.94;63.34;98146.30;1780120;79;21057;-44
2021/01/13 11:28:10;;;;;;;30.95;22.25;;;;;;;1.00;63.55;98136.22;1798295;79;21598;-44
2021/01/13 11:30:47;;;;;;;34.58;23.25;;;;;;;1.07;63.30;98131.13;1791807;79;21363;-44
2021/01/13 11:33:22;;;;;;;36.13;23.83;;;;;;;1.13;63.29;98122.60;1778391;79;21579;-44
2021/01/13 11:35:49;;;;;;;34.13;23.83;;;;;;;1.16;63.23;98128.61;1786444;79;21231;-44
2021/01/13 11:38:41;;;;;;;32.55;22.52;;;;;;;1.19;63.10;98132.53;1798752;79;21800;-44
2021/01/13 11:41:33;;;;;;;33.65;23.35;;;;;;;1.19;62.82;98120.52;1711342;81;21186;-45
2021/01/13 11:44:25;;;;;;;30.10;21.53;;;;;;;1.14;62.31;98118.83;1740587;81;21365;-44
2021/01/13 11:47:19;;;;;;;32.58;22.00;;;;;;;1.02;62.74;98110.75;1724365;82;21613;-44
2021/01/13 11:49:55;;;;;;;33.00;23.20;;;;;;;1.00;63.14;98114.88;1752700;81;21097;-44
2021/01/13 11:52:32;;;;;;;34.25;23.70;;;;;;;1.01;62.95;98115.89;1708257;83;21142;-45
2021/01/13 11:55:00;;;;;;;33.10;23.05;;;;;;;0.95;63.16;98117.73;1742398;81;22262;-45
2021/01/13 11:57:30;;;;;;;38.38;23.47;;;;;;;0.82;63.44;98120.91;1735789;81;22135;-44
2021/01/13 12:00:21;;;;;;;33.33;22.35;;;;;;;0.84;63.67;98112.01;1756765;81;21624;-44
2021/01/13 12:03:00;;;;;;;35.98;23.65;;;;;;;0.91;63.86;98113.61;1747648;81;21174;-45
2021/01/13 12:05:36;;;;;;;30.65;21.40;;;;;;;1.00;63.75;98112.20;1744954;81;21171;-45
2021/01/13 12:08:13;;;;;;;36.48;22.80;;;;;;;1.10;63.49;98111.81;1722476;82;21099;-45
2021/01/13 12:10:49;;;;;;;35.92;22.65;;;;;;;1.17;63.46;98104.81;1722303;81;21239;-44
2021/01/13 12:13:27;;;;;;;30.12;20.90;;;;;;;1.24;63.49;98109.63;1725089;81;21165;-44
2021/01/13 12:16:05;;;;;;;30.27;21.10;;;;;;;1.32;62.97;98107.43;1729283;81;21600;-45
2021/01/13 12:18:44;;;;;;;30.82;21.40;;;;;;;1.29;62.41;98108.88;1750204;81;21177;-45
2021/01/13 12:21:27;;;;;;;28.15;20.60;;;;;;;1.29;62.40;98102.20;1833779;78;22845;-44
2021/01/13 12:23:53;;;;;;;32.58;20.10;;;;;;;1.24;62.48;98102.41;1792343;78;21027;-44
2021/01/13 12:26:36;;;;;;;32.58;21.05;;;;;;;1.31;62.34;98099.19;1798457;79;21187;-44
2021/01/13 12:29:15;;;;;;;29.45;20.37;;;;;;;1.34;62.21;98103.10;1783944;80;21564;-44
2021/01/13 12:31:45;;;;;;;30.02;19.92;;;;;;;1.29;61.80;98094.75;1771568;80;21145;-44
2021/01/13 12:34:25;;;;;;;34.35;21.05;;;;;;;1.29;62.08;98094.20;1741294;81;21051;-43
2021/01/13 12:36:57;;;;;;;32.48;21.77;;;;;;;1.31;62.35;98091.96;1757187;80;21016;-43
2021/01/13 12:39:31;;;;;;;32.38;20.77;;;;;;;1.37;62.28;98093.88;1734511;82;21325;-43
2021/01/13 12:42:03;;;;;;;26.80;18.95;;;;;;;1.40;62.14;98094.56;1743779;81;21040;-43
2021/01/13 12:44:33;;;;;;;;;;;;;;;1.37;62.02;98091.75;1748866;81;21032;-43
2021/01/13 12:47:08;;;;;;;21.10;15.08;;;;;;;1.37;61.97;98087.20;1758273;80;20567;-43
2021/01/13 12:49:34;;;;;;;30.00;18.67;;;;;;;1.29;62.14;98084.85;1760371;80;21147;-43
2021/01/13 12:52:04;;;;;;;26.05;18.20;;;;;;;1.18;61.88;98083.70;1724389;81;21344;-43
2021/01/13 12:54:32;;;;;;;25.13;17.57;;;;;;;1.12;61.79;98076.21;1726007;82;21217;-43
2021/01/13 12:57:00;;;;;;;24.63;17.00;;;;;;;1.02;62.02;98080.06;1743178;81;21838;-43
2021/01/13 12:59:29;;;;;;;26.35;17.57;;;;;;;0.91;62.41;98086.15;1714133;82;21400;-43
2021/01/13 13:01:57;;;;;;;24.85;17.17;;;;;;;0.87;62.62;98076.69;1744436;82;21994;-43
2021/01/13 13:04:25;;;;;;;25.92;17.82;;;;;;;0.89;62.64;98073.13;1743751;82;21284;-43
2021/01/13 13:06:54;;;;;;;27.67;16.25;;;;;;;0.90;62.51;98077.91;1717912;82;21055;-43
2021/01/13 13:09:24;;;;;;;24.67;16.48;;;;;;;0.94;62.35;98076.14;1735973;80;27720;-43
2021/01/13 13:11:52;;;;;;;26.45;17.42;;;;;;;0.97;62.27;98083.52;1758290;81;21154;-43
2021/01/13 13:14:20;;;;;;;25.15;17.55;;;;;;;0.92;62.17;98079.13;1694570;83;21124;-43
2021/01/13 13:16:49;;;;;;;28.52;18.17;;;;;;;0.90;62.18;98084.03;1734400;81;21378;-43
2021/01/13 13:19:19;;;;;;;25.97;18.00;;;;;;;0.85;62.17;98089.56;1733619;81;21146;-43
2021/01/13 13:21:49;;;;;;;21.87;16.60;;;;;;;0.80;62.39;98082.55;1724081;82;21014;-43
2021/01/13 13:24:18;;;;;;;24.95;17.32;;;;;;;0.77;62.46;98077.09;1696860;83;21158;-43
2021/01/13 13:26:47;;;;;;;27.37;19.10;;;;;;;0.77;62.53;98077.87;1762623;81;21179;-43
2021/01/13 13:29:15;;;;;;;23.70;17.00;;;;;;;0.71;62.71;98073.05;1761906;81;22200;-43
2021/01/13 13:31:44;;;;;;;27.17;18.45;;;;;;;0.76;62.79;98073.63;1696569;84;21195;-43
2021/01/13 13:34:14;;;;;;;23.92;17.02;;;;;;;0.78;63.04;98076.73;1648768;84;21596;-43
2021/01/13 13:36:44;;;;;;;;;;;;;;;0.75;62.72;98075.28;1719493;83;21592;-43
2021/01/13 13:39:12;;;;;;;25.85;17.73;;;;;;;0.71;62.78;98078.38;1723889;83;20253;-43
2021/01/13 13:41:40;;;;;;;25.00;17.77;;;;;;;0.61;63.22;98068.10;1769814;80;22106;-43
2021/01/13 13:44:09;;;;;;;26.37;17.30;;;;;;;0.66;63.21;98066.58;1696487;83;21170;-43
2021/01/13 13:46:38;;;;;;;25.97;17.70;;;;;;;0.75;62.98;98067.28;1769661;80;21144;-43
2021/01/13 13:49:06;;;;;;;25.15;18.05;;;;;;;0.77;63.07;98065.86;1696444;84;21217;-43
2021/01/13 13:51:34;;;;;;;28.60;19.90;;;;;;;0.83;62.97;98063.75;1753161;80;21124;-43
2021/01/13 13:54:03;;;;;;;28.70;19.30;;;;;;;0.87;62.76;98068.11;1695483;84;21225;-43
2021/01/13 13:56:31;;;;;;;30.70;21.37;;;;;;;0.87;62.45;98063.35;1737953;81;21170;-43
2021/01/13 13:58:59;;;;;;;29.65;20.43;;;;;;;0.87;62.20;98056.69;1696577;84;21043;-43
2021/01/13 14:01:31;;;;;;;30.90;21.60;;;;;;;0.82;62.31;98056.30;1755340;80;21041;-43
2021/01/13 14:04:00;;;;;;;28.27;19.73;;;;;;;0.85;62.35;98053.55;1751275;81;21159;-43
2021/01/13 14:06:28;;;;;;;31.45;21.23;;;;;;;0.82;62.46;98052.88;1748900;81;21517;-42
2021/01/13 14:08:57;;;;;;;31.23;21.90;;;;;;;0.81;62.39;98061.44;1696485;83;21879;-43
2021/01/13 14:11:26;;;;;;;30.57;21.80;;;;;;;0.83;62.40;98055.20;1769916;81;21163;-42
2021/01/13 14:13:58;;;;;;;33.92;21.93;;;;;;;0.88;62.41;98048.88;1769702;80;21127;-42
2021/01/13 14:16:29;;;;;;;27.85;18.75;;;;;;;0.88;62.39;98047.55;1767745;81;21289;-42
2021/01/13 14:18:57;;;;;;;25.12;18.37;;;;;;;0.93;62.35;98052.69;1717597;83;21384;-42
2021/01/13 14:21:25;;;;;;;25.40;19.20;;;;;;;0.97;62.21;98056.25;1777427;80;21158;-43
2021/01/13 14:23:57;;;;;;;48.78;34.67;;;;;;;0.95;62.20;98054.48;1813538;79;21051;-43
2021/01/13 14:26:27;;;;;;;60.23;40.12;;;;;;;0.98;62.07;98052.48;1802887;79;21301;-42
2021/01/13 14:28:55;;;;;;;48.08;33.60;;;;;;;0.92;62.13;98053.03;1771799;79;21189;-42
2021/01/13 14:31:24;;;;;;;44.48;29.50;;;;;;;0.85;62.41;98049.00;1762455;81;21424;-43
2021/01/13 14:33:52;;;;;;;46.48;31.73;;;;;;;0.85;62.50;98052.22;1788485;79;21130;-42
2021/01/13 14:36:21;;;;;;;42.98;30.52;;;;;;;0.81;62.78;98055.31;1807890;79;21039;-43
2021/01/13 14:38:52;;;;;;;44.08;29.27;;;;;;;0.84;62.76;98042.64;1795105;79;21190;-43
2021/01/13 14:41:32;;;;;;;43.75;29.18;;;;;;;0.89;62.78;98049.11;1782609;79;21158;-43
2021/01/13 14:44:02;;;;;;;33.98;23.22;;;;;;;0.93;62.79;98045.23;1782579;79;21186;-43
2021/01/13 14:46:32;;;;;;;31.30;22.10;;;;;;;0.95;62.72;98049.14;1780731;79;20978;-43
2021/01/13 14:49:00;;;;;;;32.40;22.20;;;;;;;0.99;62.69;98044.70;1781564;80;21146;-43
2021/01/13 14:51:28;;;;;;;35.08;23.67;;;;;;;1.00;62.87;98040.94;1807165;79;21005;-42
2021/01/13 14:53:58;;;;;;;36.77;22.85;;;;;;;1.05;62.81;98042.63;1813774;79;21102;-43
2021/01/13 14:56:32;;;;;;;41.02;27.65;;;;;;;1.05;62.91;98047.41;1812413;79;21257;-43
2021/01/13 14:59:03;;;;;;;44.60;29.85;;;;;;;1.04;62.99;98040.50;1813497;79;21138;-43
2021/01/13 15:01:33;;;;;;;34.63;22.55;;;;;;;1.09;62.78;98044.85;1744350;82;21061;-43
2021/01/13 15:04:01;;;;;;;37.60;26.15;;;;;;;1.15;62.62;98045.66;1744073;82;21217;-42
2021/01/13 15:06:30;;;;;;;30.82;21.27;;;;;;;1.15;62.50;98041.66;1786792;79;21145;-43
2021/01/13 15:08:58;;;;;;;28.65;20.30;;;;;;;1.14;62.35;98034.75;1808717;79;21417;-43
2021/01/13 15:11:27;;;;;;;22.85;16.82;;;;;;;1.13;62.12;98038.52;1788728;78;21094;-42
2021/01/13 15:13:57;;;;;;;25.82;17.95;;;;;;;1.06;62.01;98032.96;1813650;78;21883;-42
2021/01/13 15:16:25;;;;;;;26.10;16.70;;;;;;;1.02;62.02;98028.03;1813558;79;21142;-42
2021/01/13 15:18:53;;;;;;;24.70;17.62;;;;;;;0.95;62.29;98027.80;1782634;79;21612;-43
2021/01/13 15:21:22;;;;;;;23.60;16.67;;;;;;;0.84;62.37;98033.31;1800321;79;21424;-43
2021/01/13 15:23:51;;;;;;;26.33;17.80;;;;;;;0.74;62.61;98033.16;1786252;79;21188;-43
2021/01/13 15:26:20;;;;;;;22.62;16.97;;;;;;;0.61;63.09;98038.22;1808518;78;21007;-43
2021/01/13 15:30:43;;;;;;;24.67;17.15;;;;;;;0.59;63.34;98031.62;1876387;76;22350;-43
2021/01/13 15:33:12;;;;;;;25.43;17.00;;;;;;;0.47;63.44;98037.70;1847341;77;21685;-42
2021/01/13 15:35:47;;;;;;;24.02;16.62;;;;;;;0.49;63.50;98040.02;1830285;77;21269;-43
2021/01/13 15:38:15;;;;;;;24.67;17.45;;;;;;;0.51;63.57;98040.48;1830747;77;21058;-43
2021/01/13 15:40:44;;;;;;;24.80;16.67;;;;;;;0.54;63.48;98037.95;1829682;77;20980;-42
2021/01/13 15:43:13;;;;;;;21.03;13.30;;;;;;;0.52;63.48;98043.39;1826367;78;21309;-43
2021/01/13 15:45:42;;;;;;;22.98;17.02;;;;;;;0.54;63.52;98047.28;1813618;77;21016;-42
2021/01/13 15:48:11;;;;;;;24.50;17.82;;;;;;;0.62;63.62;98037.66;1845507;77;21347;-42
2021/01/13 15:50:40;;;;;;;24.32;17.07;;;;;;;0.69;63.44;98040.02;1831029;77;21003;-43
2021/01/13 15:53:09;;;;;;;24.60;16.95;;;;;;;0.76;63.43;98044.84;1777456;79;21573;-42
2021/01/13 15:55:40;;;;;;;26.07;17.82;;;;;;;0.81;63.32;98040.64;1756826;81;21184;-42
2021/01/13 15:58:15;;;;;;;22.55;17.20;;;;;;;0.83;63.36;98041.86;1789721;80;21100;-42
2021/01/13 16:00:43;;;;;;;24.67;17.75;;;;;;;0.87;63.05;98032.67;1799567;78;22134;-42
2021/01/13 16:03:15;;;;;;;26.97;19.00;;;;;;;0.87;63.10;98040.09;1789010;78;21464;-43
2021/01/13 16:05:45;;;;;;;28.90;19.95;;;;;;;0.86;63.07;98033.77;1763735;79;22309;-43
2021/01/13 16:08:15;;;;;;;18.75;13.88;;;;;;;0.88;63.08;98032.33;1788417;80;21600;-43
2021/01/13 16:10:44;;;;;;;24.65;17.75;;;;;;;0.95;62.87;98036.36;1778797;80;21221;-42
2021/01/13 16:13:14;;;;;;;27.27;18.92;;;;;;;0.96;62.72;98028.03;1789663;80;21201;-43
2021/01/13 16:15:47;;;;;;;28.27;19.65;;;;;;;0.99;62.83;98027.91;1797061;78;21037;-43
2021/01/13 16:18:15;;;;;;;28.27;19.05;;;;;;;1.03;62.84;98026.14;1770919;79;21579;-43
2021/01/13 16:20:45;;;;;;;37.65;21.62;;;;;;;1.04;62.88;98018.38;1775103;79;21693;-42
2021/01/13 16:23:13;;;;;;;33.65;20.72;;;;;;;1.07;62.85;98026.48;1790041;79;21122;-42
2021/01/13 16:25:42;;;;;;;36.25;20.88;;;;;;;1.09;62.73;98024.28;1793488;79;21202;-42
2021/01/13 16:28:11;;;;;;;32.10;20.33;;;;;;;1.14;62.76;98023.30;1773875;79;21208;-43
2021/01/13 16:30:41;;;;;;;26.90;19.12;;;;;;;1.12;62.72;98020.94;1770519;79;20999;-43
2021/01/13 16:33:11;;;;;;;33.40;21.15;;;;;;;1.09;62.72;98020.28;1773628;80;21051;-43
2021/01/13 16:35:40;;;;;;;30.45;20.10;;;;;;;1.11;62.73;98014.07;1767001;79;21718;-43
2021/01/13 16:38:10;;;;;;;32.03;20.45;;;;;;;1.15;62.77;98018.97;1765971;79;21358;-43
2021/01/13 16:40:39;;;;;;;29.35;21.05;;;;;;;1.19;62.65;98021.75;1769834;79;21170;-42
2021/01/13 16:43:08;;;;;;;30.40;20.65;;;;;;;1.19;62.59;98015.86;1772773;80;20983;-43
2021/01/13 16:45:37;;;;;;;29.60;19.98;;;;;;;1.23;62.56;98023.42;1771984;79;21447;-42
2021/01/13 16:48:08;;;;;;;30.77;20.33;;;;;;;1.23;62.69;98019.98;1773431;80;21138;-43
2021/01/13 16:50:37;;;;;;;30.52;19.82;;;;;;;1.17;62.68;98023.41;1776682;79;21216;-42
2021/01/13 16:53:07;;;;;;;26.77;17.87;;;;;;;1.12;62.34;98027.62;1778063;80;21195;-43
2021/01/13 16:55:36;;;;;;;18.77;12.88;;;;;;;1.00;62.60;98030.27;1772095;79;21019;-43
2021/01/13 16:58:05;;;;;;;23.83;16.82;;;;;;;0.94;62.59;98026.78;1773058;80;21212;-43
2021/01/13 17:00:36;;;;;;;23.45;16.82;;;;;;;0.83;62.71;98027.73;1771640;79;21142;-43
2021/01/13 17:03:06;;;;;;;23.38;14.85;;;;;;;0.69;62.85;98021.36;1771909;80;21716;-42
2021/01/13 17:05:34;;;;;;;;;;;;;;;0.63;63.09;98025.31;1775042;80;21066;-42
2021/01/13 17:08:03;;;;;;;25.08;16.75;;;;;;;0.56;63.26;98013.63;1772232;80;20244;-42
2021/01/13 17:10:34;;;;;;;20.10;14.35;;;;;;;0.44;63.66;98016.45;1771569;80;21179;-42
2021/01/13 17:13:02;;;;;;;21.52;15.13;;;;;;;0.42;63.77;98020.56;1772587;80;21567;-42
2021/01/13 17:15:30;;;;;;;21.48;14.78;;;;;;;0.37;63.84;98024.20;1773346;80;21449;-42
2021/01/13 17:17:59;;;;;;;22.07;15.35;;;;;;;0.27;64.00;98027.25;1745211;80;20991;-42
2021/01/13 17:20:28;;;;;;;20.17;14.50;;;;;;;0.17;64.30;98028.97;1743942;81;21595;-42
2021/01/13 17:22:56;;;;;;;24.40;15.88;;;;;;;0.11;64.40;98027.58;1756106;80;21573;-42
2021/01/13 17:25:28;;;;;;;18.48;12.85;;;;;;;0.05;64.75;98027.53;1770678;80;21123;-42
2021/01/13 17:27:56;;;;;;;20.48;15.38;;;;;;;0.02;64.85;98024.20;1770118;79;25106;-42
2021/01/13 17:30:30;;;;;;;25.75;16.02;;;;;;;-0.06;65.04;98028.48;1791255;79;21048;-42
2021/01/13 17:33:01;;;;;;;24.98;16.15;;;;;;;-0.09;65.18;98028.33;1765760;81;21179;-42
2021/01/13 17:35:31;;;;;;;28.70;18.45;;;;;;;-0.13;65.47;98028.19;1777778;79;21597;-42
2021/01/13 17:38:05;;;;;;;26.23;17.20;;;;;;;-0.11;65.58;98025.22;1793988;79;21010;-42
2021/01/13 17:40:33;;;;;;;29.42;19.20;;;;;;;-0.15;65.66;98021.64;1765399;80;21368;-42
2021/01/13 17:43:02;;;;;;;26.17;18.40;;;;;;;-0.19;65.85;98030.02;1690535;81;21616;-42
2021/01/13 17:45:32;;;;;;;27.35;18.65;;;;;;;-0.19;65.92;98031.34;1791303;79;21145;-42
2021/01/13 17:48:03;;;;;;;25.45;18.07;;;;;;;-0.18;66.12;98032.92;1792667;80;21131;-42
2021/01/13 17:50:32;;;;;;;25.20;17.42;;;;;;;-0.15;66.19;98029.08;1793675;78;20981;-42
2021/01/13 17:53:02;;;;;;;24.12;16.00;;;;;;;-0.11;66.06;98023.89;1812556;78;21265;-42
2021/01/13 17:55:33;;;;;;;21.70;16.02;;;;;;;-0.11;65.60;98030.55;1825074;78;21149;-42
2021/01/13 17:58:03;;;;;;;20.30;13.83;;;;;;;-0.22;65.76;98028.01;1825146;78;21007;-42
2021/01/13 18:00:34;;;;;;;24.92;16.57;;;;;;;-0.23;65.84;98022.45;1812900;78;21120;-42
2021/01/13 18:03:03;;;;;;;26.07;15.98;;;;;;;-0.25;65.93;98026.78;1821590;78;21122;-42
2021/01/13 18:05:32;;;;;;;24.75;15.90;;;;;;;-0.25;65.88;98026.78;1777722;79;21263;-42
2021/01/13 18:08:02;;;;;;;24.12;16.35;;;;;;;-0.26;65.98;98023.88;1792498;80;21121;-42
2021/01/13 18:10:33;;;;;;;24.27;16.57;;;;;;;-0.28;65.95;98026.62;1796398;79;21540;-42
2021/01/13 18:13:05;;;;;;;28.80;18.70;;;;;;;-0.34;66.09;98031.92;1815838;78;21027;-41
2021/01/13 18:15:37;;;;;;;29.60;19.15;;;;;;;-0.34;66.24;98029.25;1796175;79;21035;-42
2021/01/13 18:18:07;;;;;;;24.50;16.45;;;;;;;-0.37;66.37;98027.21;1766788;80;21192;-41
2021/01/13 18:20:37;;;;;;;29.05;18.55;;;;;;;-0.40;66.37;98020.66;1777622;79;28679;-42
2021/01/13 18:23:17;;;;;;;28.32;17.25;;;;;;;-0.44;66.61;98017.84;1761482;81;21546;-42
2021/01/13 18:25:46;;;;;;;;;;;;;;;-0.44;66.57;98007.19;1764201;79;20988;-42
2021/01/13 18:28:14;;;;;;;25.32;16.73;;;;;;;-0.51;66.72;98011.45;1765365;81;20308;-42
2021/01/13 18:30:42;;;;;;;31.80;19.25;;;;;;;-0.65;67.15;98005.02;1764306;80;21278;-42